sensor_id;sensor_type;location;lat;lon;timestamp;pressure;altitude;pressure_sealevel;temperature;humidity
6532;BME280;3299;42.004;24.868;2022-11-24T00:01:26;97209.75;;;8.86;100.00
6532;BME280;3299;42.004;24.868;2022-11-24T00:04:04;97215.13;;;8.94;100.00
6532;BME280;3299;42.004;24.868;2022-11-24T00:06:30;97215.13;;;8.94;100.00
6532;BME280;3299;42.004;24.868;2022-11-24T00:08:56;97217.59;;;8.96;100.00
6532;BME280;3299;42.004;24.868;2022-11-24T00:11:24;97224.50;;;8.95;100.00
6532;BME280;3299;42.004;24.868;2022-11-24T00:13:50;97221.94;;;8.95;100.00
6532;BME280;3299;42.004;24.868;2022-11-24T00:18:47;97220.53;;;8.91;100.00
6532;BME280;3299;42.004;24.868;2022-11-24T00:21:14;97217.00;;;8.92;100.00
6532;BME280;3299;42.004;24.868;2022-11-24T00:23:40;97198.03;;;8.93;100.00
6532;BME280;3299;42.004;24.868;2022-11-24T00:26:16;97212.88;;;9.01;100.00
6532;BME280;3299;42.004;24.868;2022-11-24T00:28:44;97218.41;;;8.96;100.00
6532;BME280;3299;42.004;24.868;2022-11-24T00:33:39;97216.78;;;8.95;100.00
6532;BME280;3299;42.004;24.868;2022-11-24T00:36:05;97211.94;;;9.02;100.00
6532;BME280;3299;42.004;24.868;2022-11-24T00:38:30;97217.16;;;9.11;100.00
6532;BME280;3299;42.004;24.868;2022-11-24T00:40:55;97218.03;;;9.21;100.00
6532;BME280;3299;42.004;24.868;2022-11-24T00:43:21;97219.25;;;9.17;100.00
6532;BME280;3299;42.004;24.868;2022-11-24T00:45:46;97224.34;;;9.08;100.00
6532;BME280;3299;42.004;24.868;2022-11-24T00:48:12;97231.75;;;9.01;100.00
6532;BME280;3299;42.004;24.868;2022-11-24T00:50:37;97234.44;;;9.00;100.00
6532;BME280;3299;42.004;24.868;2022-11-24T00:53:03;97236.38;;;8.87;100.00
6532;BME280;3299;42.004;24.868;2022-11-24T00:55:28;97234.81;;;8.95;100.00
6532;BME280;3299;42.004;24.868;2022-11-24T00:57:54;97244.47;;;8.93;100.00
6532;BME280;3299;42.004;24.868;2022-11-24T01:00:19;97232.84;;;8.88;100.00
6532;BME280;3299;42.004;24.868;2022-11-24T01:02:45;97228.06;;;8.83;100.00
6532;BME280;3299;42.004;24.868;2022-11-24T01:05:10;97230.41;;;8.86;100.00
6532;BME280;3299;42.004;24.868;2022-11-24T01:07:36;97233.72;;;8.77;100.00
6532;BME280;3299;42.004;24.868;2022-11-24T01:10:02;97232.56;;;8.81;100.00
6532;BME280;3299;42.004;24.868;2022-11-24T01:12:27;97228.00;;;8.74;100.00
6532;BME280;3299;42.004;24.868;2022-11-24T01:14:53;97233.50;;;8.69;100.00
6532;BME280;3299;42.004;24.868;2022-11-24T01:17:18;97225.59;;;8.50;100.00
6532;BME280;3299;42.004;24.868;2022-11-24T01:19:44;97224.44;;;8.54;100.00
6532;BME280;3299;42.004;24.868;2022-11-24T01:22:12;97229.69;;;8.53;100.00
6532;BME280;3299;42.004;24.868;2022-11-24T01:24:38;97230.63;;;8.52;100.00
6532;BME280;3299;42.004;24.868;2022-11-24T01:27:03;97243.53;;;8.52;100.00
6532;BME280;3299;42.004;24.868;2022-11-24T01:29:29;97243.16;;;8.56;100.00
6532;BME280;3299;42.004;24.868;2022-11-24T01:31:54;97245.03;;;8.54;100.00
6532;BME280;3299;42.004;24.868;2022-11-24T01:34:19;97241.97;;;8.60;100.00
6532;BME280;3299;42.004;24.868;2022-11-24T01:36:45;97228.16;;;8.61;100.00
6532;BME280;3299;42.004;24.868;2022-11-24T01:39:10;97226.84;;;8.67;100.00
6532;BME280;3299;42.004;24.868;2022-11-24T01:41:36;97227.16;;;8.73;100.00
6532;BME280;3299;42.004;24.868;2022-11-24T01:44:25;97226.22;;;8.74;100.00
6532;BME280;3299;42.004;24.868;2022-11-24T01:46:56;97222.03;;;8.62;100.00
6532;BME280;3299;42.004;24.868;2022-11-24T01:49:50;97219.28;;;8.54;100.00
6532;BME280;3299;42.004;24.868;2022-11-24T01:52:27;97221.00;;;8.54;100.00
6532;BME280;3299;42.004;24.868;2022-11-24T01:54:56;97223.94;;;8.60;100.00
6532;BME280;3299;42.004;24.868;2022-11-24T01:57:28;97224.44;;;8.54;100.00
6532;BME280;3299;42.004;24.868;2022-11-24T01:59:59;97229.31;;;8.57;100.00
6532;BME280;3299;42.004;24.868;2022-11-24T02:02:27;97231.41;;;8.63;100.00
6532;BME280;3299;42.004;24.868;2022-11-24T02:04:58;97233.66;;;8.68;100.00
6532;BME280;3299;42.004;24.868;2022-11-24T02:07:25;97234.44;;;8.68;100.00
6532;BME280;3299;42.004;24.868;2022-11-24T02:09:54;97241.22;;;8.69;100.00
6532;BME280;3299;42.004;24.868;2022-11-24T02:12:21;97240.34;;;8.59;100.00
6532;BME280;3299;42.004;24.868;2022-11-24T02:14:48;97239.88;;;8.54;100.00
6532;BME280;3299;42.004;24.868;2022-11-24T02:17:14;97240.47;;;8.47;100.00
6532;BME280;3299;42.004;24.868;2022-11-24T02:22:17;97237.91;;;8.47;100.00
6532;BME280;3299;42.004;24.868;2022-11-24T02:25:26;97223.72;;;8.52;100.00
6532;BME280;3299;42.004;24.868;2022-11-24T02:27:55;97233.31;;;8.61;100.00
6532;BME280;3299;42.004;24.868;2022-11-24T02:30:21;97230.50;;;8.64;100.00
6532;BME280;3299;42.004;24.868;2022-11-24T02:32:47;97228.97;;;8.62;100.00
6532;BME280;3299;42.004;24.868;2022-11-24T02:35:13;97221.59;;;8.57;100.00
6532;BME280;3299;42.004;24.868;2022-11-24T02:37:39;97229.31;;;8.57;100.00
6532;BME280;3299;42.004;24.868;2022-11-24T02:40:05;97225.28;;;8.44;100.00
6532;BME280;3299;42.004;24.868;2022-11-24T02:42:35;97221.59;;;8.46;100.00
6532;BME280;3299;42.004;24.868;2022-11-24T02:45:01;97223.88;;;8.40;100.00
6532;BME280;3299;42.004;24.868;2022-11-24T02:47:27;97218.16;;;8.25;100.00
6532;BME280;3299;42.004;24.868;2022-11-24T02:49:52;97223.53;;;8.22;100.00
6532;BME280;3299;42.004;24.868;2022-11-24T02:52:18;97225.28;;;8.00;100.00
6532;BME280;3299;42.004;24.868;2022-11-24T02:54:43;97225.41;;;8.09;100.00
6532;BME280;3299;42.004;24.868;2022-11-24T02:57:09;97230.34;;;8.23;100.00
6532;BME280;3299;42.004;24.868;2022-11-24T02:59:35;97230.56;;;8.09;100.00
6532;BME280;3299;42.004;24.868;2022-11-24T03:02:01;97223.19;;;7.94;100.00
6532;BME280;3299;42.004;24.868;2022-11-24T03:04:27;97229.28;;;7.71;100.00
6532;BME280;3299;42.004;24.868;2022-11-24T03:06:52;97232.66;;;7.82;100.00
6532;BME280;3299;42.004;24.868;2022-11-24T03:09:18;97233.84;;;7.89;100.00
6532;BME280;3299;42.004;24.868;2022-11-24T03:11:43;97237.34;;;7.99;100.00
6532;BME280;3299;42.004;24.868;2022-11-24T03:14:08;97236.66;;;7.97;100.00
6532;BME280;3299;42.004;24.868;2022-11-24T03:16:34;97240.38;;;8.04;100.00
6532;BME280;3299;42.004;24.868;2022-11-24T03:19:00;97233.38;;;7.73;100.00
6532;BME280;3299;42.004;24.868;2022-11-24T03:21:25;97229.03;;;7.85;100.00
6532;BME280;3299;42.004;24.868;2022-11-24T03:23:51;97238.16;;;7.89;100.00
6532;BME280;3299;42.004;24.868;2022-11-24T03:26:19;97239.22;;;7.86;100.00
6532;BME280;3299;42.004;24.868;2022-11-24T03:28:44;97248.56;;;7.76;100.00
6532;BME280;3299;42.004;24.868;2022-11-24T03:31:10;97244.97;;;7.68;100.00
6532;BME280;3299;42.004;24.868;2022-11-24T03:33:36;97250.41;;;7.52;100.00
6532;BME280;3299;42.004;24.868;2022-11-24T03:36:03;97245.53;;;7.60;100.00
6532;BME280;3299;42.004;24.868;2022-11-24T03:38:28;97254.88;;;7.61;100.00
6532;BME280;3299;42.004;24.868;2022-11-24T03:40:54;97261.47;;;7.65;100.00
6532;BME280;3299;42.004;24.868;2022-11-24T03:43:19;97264.56;;;7.47;100.00
6532;BME280;3299;42.004;24.868;2022-11-24T03:45:48;97267.22;;;7.34;100.00
6532;BME280;3299;42.004;24.868;2022-11-24T03:48:15;97269.91;;;7.33;100.00
6532;BME280;3299;42.004;24.868;2022-11-24T03:50:42;97271.19;;;7.27;100.00
6532;BME280;3299;42.004;24.868;2022-11-24T03:53:07;97274.31;;;7.20;100.00
6532;BME280;3299;42.004;24.868;2022-11-24T03:55:33;97265.47;;;7.35;100.00
6532;BME280;3299;42.004;24.868;2022-11-24T03:57:58;97268.56;;;7.51;100.00
6532;BME280;3299;42.004;24.868;2022-11-24T04:00:24;97264.00;;;7.54;100.00
6532;BME280;3299;42.004;24.868;2022-11-24T04:02:49;97269.03;;;7.45;100.00
6532;BME280;3299;42.004;24.868;2022-11-24T04:05:15;97262.59;;;7.50;100.00
6532;BME280;3299;42.004;24.868;2022-11-24T04:07:40;97271.16;;;7.73;100.00
6532;BME280;3299;42.004;24.868;2022-11-24T04:10:07;97273.75;;;7.84;100.00
6532;BME280;3299;42.004;24.868;2022-11-24T04:12:32;97272.69;;;7.86;100.00
6532;BME280;3299;42.004;24.868;2022-11-24T04:15:24;97275.75;;;7.91;100.00
6532;BME280;3299;42.004;24.868;2022-11-24T04:17:49;97276.22;;;7.96;100.00
6532;BME280;3299;42.004;24.868;2022-11-24T04:20:15;97271.88;;;7.97;100.00
6532;BME280;3299;42.004;24.868;2022-11-24T04:22:41;97277.84;;;7.97;100.00
6532;BME280;3299;42.004;24.868;2022-11-24T04:25:08;97288.16;;;7.86;100.00
6532;BME280;3299;42.004;24.868;2022-11-24T04:27:35;97287.19;;;7.87;100.00
6532;BME280;3299;42.004;24.868;2022-11-24T04:30:01;97290.50;;;7.89;100.00
6532;BME280;3299;42.004;24.868;2022-11-24T04:32:26;97287.19;;;7.87;100.00
6532;BME280;3299;42.004;24.868;2022-11-24T04:34:52;97294.59;;;7.92;100.00
6532;BME280;3299;42.004;24.868;2022-11-24T04:37:17;97290.50;;;7.89;100.00
6532;BME280;3299;42.004;24.868;2022-11-24T04:39:43;97290.03;;;7.84;100.00
6532;BME280;3299;42.004;24.868;2022-11-24T04:42:09;97305.59;;;7.83;100.00
6532;BME280;3299;42.004;24.868;2022-11-24T04:44:34;97300.91;;;7.77;100.00
6532;BME280;3299;42.004;24.868;2022-11-24T04:46:59;97305.06;;;7.67;100.00
6532;BME280;3299;42.004;24.868;2022-11-24T04:49:25;97310.81;;;7.70;100.00
6532;BME280;3299;42.004;24.868;2022-11-24T04:51:51;97304.75;;;7.71;100.00
6532;BME280;3299;42.004;24.868;2022-11-24T04:54:16;97309.44;;;7.77;100.00
6532;BME280;3299;42.004;24.868;2022-11-24T04:56:42;97311.66;;;7.71;100.00
6532;BME280;3299;42.004;24.868;2022-11-24T04:59:12;97317.91;;;7.56;100.00
6532;BME280;3299;42.004;24.868;2022-11-24T05:01:40;97319.34;;;7.60;100.00
6532;BME280;3299;42.004;24.868;2022-11-24T05:04:05;97322.28;;;7.66;100.00
6532;BME280;3299;42.004;24.868;2022-11-24T05:06:31;97321.56;;;7.64;100.00
6532;BME280;3299;42.004;24.868;2022-11-24T05:08:57;97317.38;;;7.63;100.00
6532;BME280;3299;42.004;24.868;2022-11-24T05:11:22;97330.97;;;7.76;100.00
6532;BME280;3299;42.004;24.868;2022-11-24T05:13:48;97325.81;;;7.76;100.00
6532;BME280;3299;42.004;24.868;2022-11-24T05:16:13;97321.75;;;7.74;100.00
6532;BME280;3299;42.004;24.868;2022-11-24T05:18:39;97318.81;;;7.78;100.00
6532;BME280;3299;42.004;24.868;2022-11-24T05:21:04;97317.88;;;7.79;100.00
6532;BME280;3299;42.004;24.868;2022-11-24T05:23:30;97326.31;;;7.92;100.00
6532;BME280;3299;42.004;24.868;2022-11-24T05:25:59;97323.97;;;7.89;100.00
6532;BME280;3299;42.004;24.868;2022-11-24T05:28:25;97321.72;;;7.85;100.00
6532;BME280;3299;42.004;24.868;2022-11-24T05:30:51;97319.28;;;7.83;100.00
6532;BME280;3299;42.004;24.868;2022-11-24T05:33:17;97321.50;;;7.77;100.00
6532;BME280;3299;42.004;24.868;2022-11-24T05:35:47;97328.72;;;7.72;100.00
6532;BME280;3299;42.004;24.868;2022-11-24T05:38:15;97337.78;;;7.77;100.00
6532;BME280;3299;42.004;24.868;2022-11-24T05:40:41;97331.66;;;7.67;100.00
6532;BME280;3299;42.004;24.868;2022-11-24T05:43:11;97336.81;;;7.67;100.00
6532;BME280;3299;42.004;24.868;2022-11-24T05:45:36;97342.88;;;7.66;100.00
6532;BME280;3299;42.004;24.868;2022-11-24T05:48:07;97348.38;;;7.73;100.00
6532;BME280;3299;42.004;24.868;2022-11-24T05:50:34;97341.72;;;7.70;100.00
6532;BME280;3299;42.004;24.868;2022-11-24T05:53:03;97354.25;;;7.75;100.00
6532;BME280;3299;42.004;24.868;2022-11-24T05:55:29;97346.16;;;7.68;100.00
6532;BME280;3299;42.004;24.868;2022-11-24T05:58:03;97352.34;;;7.66;100.00
6532;BME280;3299;42.004;24.868;2022-11-24T06:00:30;97340.19;;;7.57;100.00
6532;BME280;3299;42.004;24.868;2022-11-24T06:02:56;97351.06;;;7.60;100.00
6532;BME280;3299;42.004;24.868;2022-11-24T06:05:22;97349.19;;;7.62;100.00
6532;BME280;3299;42.004;24.868;2022-11-24T06:07:47;97345.09;;;7.60;100.00
6532;BME280;3299;42.004;24.868;2022-11-24T06:10:17;97355.28;;;7.61;100.00
6532;BME280;3299;42.004;24.868;2022-11-24T06:12:42;97348.63;;;7.70;100.00
6532;BME280;3299;42.004;24.868;2022-11-24T06:15:08;97364.22;;;7.79;100.00
6532;BME280;3299;42.004;24.868;2022-11-24T06:17:34;97360.50;;;7.83;100.00
6532;BME280;3299;42.004;24.868;2022-11-24T06:19:59;97364.72;;;7.95;100.00
6532;BME280;3299;42.004;24.868;2022-11-24T06:22:25;97362.38;;;7.92;100.00
6532;BME280;3299;42.004;24.868;2022-11-24T06:24:50;97362.13;;;7.84;100.00
6532;BME280;3299;42.004;24.868;2022-11-24T06:27:16;97366.81;;;7.90;100.00
6532;BME280;3299;42.004;24.868;2022-11-24T06:29:41;97355.38;;;7.94;100.00
6532;BME280;3299;42.004;24.868;2022-11-24T06:32:07;97364.97;;;8.03;100.00
6532;BME280;3299;42.004;24.868;2022-11-24T06:34:33;97372.22;;;8.09;100.00
6532;BME280;3299;42.004;24.868;2022-11-24T06:36:58;97360.31;;;8.19;100.00
6532;BME280;3299;42.004;24.868;2022-11-24T06:39:23;97363.38;;;8.24;100.00
6532;BME280;3299;42.004;24.868;2022-11-24T06:41:49;97353.78;;;8.26;100.00
6532;BME280;3299;42.004;24.868;2022-11-24T06:44:15;97350.97;;;8.29;100.00
6532;BME280;3299;42.004;24.868;2022-11-24T06:46:40;97364.94;;;8.38;100.00
6532;BME280;3299;42.004;24.868;2022-11-24T06:49:06;97366.09;;;8.45;100.00
6532;BME280;3299;42.004;24.868;2022-11-24T06:51:31;97372.63;;;8.49;100.00
6532;BME280;3299;42.004;24.868;2022-11-24T06:53:57;97375.22;;;8.60;100.00
6532;BME280;3299;42.004;24.868;2022-11-24T06:56:22;97391.25;;;8.63;100.00
6532;BME280;3299;42.004;24.868;2022-11-24T06:58:50;97383.50;;;8.74;100.00
6532;BME280;3299;42.004;24.868;2022-11-24T07:01:21;97389.81;;;8.92;100.00
6532;BME280;3299;42.004;24.868;2022-11-24T07:03:48;97386.44;;;9.03;100.00
6532;BME280;3299;42.004;24.868;2022-11-24T07:06:14;97392.28;;;9.05;100.00
6532;BME280;3299;42.004;24.868;2022-11-24T07:08:40;97390.75;;;9.02;100.00
6532;BME280;3299;42.004;24.868;2022-11-24T07:11:07;97392.38;;;9.03;100.00
6532;BME280;3299;42.004;24.868;2022-11-24T07:13:33;97388.44;;;8.99;100.00
6532;BME280;3299;42.004;24.868;2022-11-24T07:15:59;97400.84;;;9.05;100.00
6532;BME280;3299;42.004;24.868;2022-11-24T07:18:24;97393.19;;;9.15;100.00
6532;BME280;3299;42.004;24.868;2022-11-24T07:20:50;97397.53;;;9.14;100.00
6532;BME280;3299;42.004;24.868;2022-11-24T07:23:15;97388.81;;;9.26;100.00
6532;BME280;3299;42.004;24.868;2022-11-24T07:25:41;97388.09;;;9.35;100.00
6532;BME280;3299;42.004;24.868;2022-11-24T07:28:06;97396.78;;;9.34;100.00
6532;BME280;3299;42.004;24.868;2022-11-24T07:30:32;97389.88;;;9.24;100.00
6532;BME280;3299;42.004;24.868;2022-11-24T07:33:01;97392.78;;;9.41;100.00
6532;BME280;3299;42.004;24.868;2022-11-24T07:35:27;97390.38;;;9.49;100.00
6532;BME280;3299;42.004;24.868;2022-11-24T07:37:57;97390.84;;;9.54;100.00
6532;BME280;3299;42.004;24.868;2022-11-24T07:40:23;97384.38;;;9.60;100.00
6532;BME280;3299;42.004;24.868;2022-11-24T07:42:50;97394.50;;;9.72;100.00
6532;BME280;3299;42.004;24.868;2022-11-24T07:45:15;97391.88;;;9.83;100.00
6532;BME280;3299;42.004;24.868;2022-11-24T07:47:41;97371.66;;;9.88;100.00
6532;BME280;3299;42.004;24.868;2022-11-24T07:50:08;97393.44;;;10.06;100.00
6532;BME280;3299;42.004;24.868;2022-11-24T07:52:34;97394.44;;;10.14;100.00
6532;BME280;3299;42.004;24.868;2022-11-24T07:55:00;97394.66;;;10.32;100.00
6532;BME280;3299;42.004;24.868;2022-11-24T07:57:26;97391.41;;;10.30;100.00
6532;BME280;3299;42.004;24.868;2022-11-24T07:59:53;97398.41;;;10.39;100.00
6532;BME280;3299;42.004;24.868;2022-11-24T08:02:19;97392.78;;;10.34;100.00
6532;BME280;3299;42.004;24.868;2022-11-24T08:04:44;97395.41;;;10.43;100.00
6532;BME280;3299;42.004;24.868;2022-11-24T08:07:10;97392.63;;;10.56;100.00
6532;BME280;3299;42.004;24.868;2022-11-24T08:09:35;97401.41;;;10.74;100.00
6532;BME280;3299;42.004;24.868;2022-11-24T08:12:00;97405.22;;;10.79;100.00
6532;BME280;3299;42.004;24.868;2022-11-24T08:14:26;97402.00;;;10.87;100.00
6532;BME280;3299;42.004;24.868;2022-11-24T08:16:51;97403.25;;;11.02;100.00
6532;BME280;3299;42.004;24.868;2022-11-24T08:19:16;97406.16;;;11.18;100.00
6532;BME280;3299;42.004;24.868;2022-11-24T08:21:42;97399.25;;;11.28;99.79
6532;BME280;3299;42.004;24.868;2022-11-24T08:24:07;97403.75;;;11.35;100.00
6532;BME280;3299;42.004;24.868;2022-11-24T08:26:33;97410.31;;;11.49;100.00
6532;BME280;3299;42.004;24.868;2022-11-24T08:28:58;97401.88;;;11.66;99.21
6532;BME280;3299;42.004;24.868;2022-11-24T08:31:25;97404.75;;;11.82;99.34
6532;BME280;3299;42.004;24.868;2022-11-24T08:33:56;97404.91;;;11.90;100.00
6532;BME280;3299;42.004;24.868;2022-11-24T08:36:22;97408.44;;;11.98;100.00
6532;BME280;3299;42.004;24.868;2022-11-24T08:38:47;97417.28;;;12.15;94.46
6532;BME280;3299;42.004;24.868;2022-11-24T08:41:17;97412.75;;;12.26;94.04
6532;BME280;3299;42.004;24.868;2022-11-24T08:43:43;97411.38;;;12.32;95.13
6532;BME280;3299;42.004;24.868;2022-11-24T08:46:11;97405.75;;;12.46;93.04
6532;BME280;3299;42.004;24.868;2022-11-24T08:48:37;97403.94;;;12.56;92.06
6532;BME280;3299;42.004;24.868;2022-11-24T08:51:11;97412.53;;;12.66;92.05
6532;BME280;3299;42.004;24.868;2022-11-24T08:53:37;97409.06;;;12.75;91.39
6532;BME280;3299;42.004;24.868;2022-11-24T08:56:04;97413.84;;;12.79;90.90
6532;BME280;3299;42.004;24.868;2022-11-24T08:58:30;97407.66;;;12.90;91.84
6532;BME280;3299;42.004;24.868;2022-11-24T09:01:06;97402.00;;;12.94;92.24
6532;BME280;3299;42.004;24.868;2022-11-24T09:03:33;97413.88;;;13.06;91.40
6532;BME280;3299;42.004;24.868;2022-11-24T09:05:59;97414.13;;;13.13;90.16
6532;BME280;3299;42.004;24.868;2022-11-24T09:08:25;97413.41;;;13.20;91.45
6532;BME280;3299;42.004;24.868;2022-11-24T09:10:50;97409.13;;;13.29;91.88
6532;BME280;3299;42.004;24.868;2022-11-24T09:13:16;97409.84;;;13.39;92.18
6532;BME280;3299;42.004;24.868;2022-11-24T09:15:41;97419.44;;;13.56;97.35
6532;BME280;3299;42.004;24.868;2022-11-24T09:18:07;97406.00;;;13.60;100.00
6532;BME280;3299;42.004;24.868;2022-11-24T09:20:32;97409.81;;;13.66;100.00
6532;BME280;3299;42.004;24.868;2022-11-24T09:22:58;97396.22;;;13.72;100.00
6532;BME280;3299;42.004;24.868;2022-11-24T09:25:23;97401.94;;;13.75;100.00
6532;BME280;3299;42.004;24.868;2022-11-24T09:27:49;97397.13;;;13.80;100.00
6532;BME280;3299;42.004;24.868;2022-11-24T09:30:16;97400.22;;;13.84;100.00
6532;BME280;3299;42.004;24.868;2022-11-24T09:32:41;97399.63;;;13.90;100.00
6532;BME280;3299;42.004;24.868;2022-11-24T09:35:07;97393.81;;;13.96;100.00
6532;BME280;3299;42.004;24.868;2022-11-24T09:37:32;97392.72;;;13.98;100.00
6532;BME280;3299;42.004;24.868;2022-11-24T09:39:58;97396.34;;;14.05;100.00
6532;BME280;3299;42.004;24.868;2022-11-24T09:42:44;97400.78;;;14.13;100.00
6532;BME280;3299;42.004;24.868;2022-11-24T09:45:20;97400.22;;;14.19;100.00
6532;BME280;3299;42.004;24.868;2022-11-24T09:47:59;97397.47;;;14.20;100.00
6532;BME280;3299;42.004;24.868;2022-11-24T09:50:32;97387.84;;;14.21;100.00
6532;BME280;3299;42.004;24.868;2022-11-24T09:53:13;97385.34;;;14.29;100.00
6532;BME280;3299;42.004;24.868;2022-11-24T10:00:37;97392.03;;;14.31;100.00
6532;BME280;3299;42.004;24.868;2022-11-24T10:03:03;97391.56;;;14.36;100.00
6532;BME280;3299;42.004;24.868;2022-11-24T10:05:33;97384.72;;;14.35;100.00
6532;BME280;3299;42.004;24.868;2022-11-24T10:10:56;97384.75;;;14.43;100.00
6532;BME280;3299;42.004;24.868;2022-11-24T10:27:46;97368.13;;;14.61;100.00
6532;BME280;3299;42.004;24.868;2022-11-24T10:30:17;97361.81;;;14.72;100.00
6532;BME280;3299;42.004;24.868;2022-11-24T10:32:48;97363.78;;;14.78;100.00
6532;BME280;3299;42.004;24.868;2022-11-24T10:35:19;97357.94;;;14.76;100.00
6532;BME280;3299;42.004;24.868;2022-11-24T10:38:47;97365.28;;;14.80;100.00
6532;BME280;3299;42.004;24.868;2022-11-24T10:40:52;97361.16;;;14.70;100.00
6532;BME280;3299;42.004;24.868;2022-11-24T10:43:20;97364.91;;;14.75;100.00
6532;BME280;3299;42.004;24.868;2022-11-24T10:45:45;97353.53;;;14.76;100.00
6532;BME280;3299;42.004;24.868;2022-11-24T10:48:24;97357.25;;;14.74;98.42
6532;BME280;3299;42.004;24.868;2022-11-24T10:50:52;97357.94;;;14.76;95.72
6532;BME280;3299;42.004;24.868;2022-11-24T10:53:25;97360.44;;;14.93;90.52
6532;BME280;3299;42.004;24.868;2022-11-24T11:00:58;97352.94;;;15.40;83.49
6532;BME280;3299;42.004;24.868;2022-11-24T11:03:26;97366.19;;;15.54;84.27
6532;BME280;3299;42.004;24.868;2022-11-24T11:05:54;97350.69;;;15.61;83.03
6532;BME280;3299;42.004;24.868;2022-11-24T11:08:27;97356.41;;;15.72;82.76
6532;BME280;3299;42.004;24.868;2022-11-24T11:11:27;97355.25;;;15.67;84.00
6532;BME280;3299;42.004;24.868;2022-11-24T11:13:56;97359.50;;;15.68;82.59
6532;BME280;3299;42.004;24.868;2022-11-24T11:16:38;97363.41;;;15.72;82.51
6532;BME280;3299;42.004;24.868;2022-11-24T11:22:14;97354.78;;;15.95;82.75
6532;BME280;3299;42.004;24.868;2022-11-24T11:24:43;97354.59;;;16.05;79.32
6532;BME280;3299;42.004;24.868;2022-11-24T11:27:19;97365.38;;;16.02;77.22
6532;BME280;3299;42.004;24.868;2022-11-24T11:29:45;97359.19;;;16.03;67.85
6532;BME280;3299;42.004;24.868;2022-11-24T11:32:25;97359.50;;;15.92;68.08
6532;BME280;3299;42.004;24.868;2022-11-24T11:34:53;97367.00;;;15.87;68.28
6532;BME280;3299;42.004;24.868;2022-11-24T11:37:20;97358.84;;;15.82;68.02
6532;BME280;3299;42.004;24.868;2022-11-24T11:39:50;97364.72;;;15.76;68.18
6532;BME280;3299;42.004;24.868;2022-11-24T11:50:48;97366.34;;;15.93;67.25
6532;BME280;3299;42.004;24.868;2022-11-24T11:55:52;97362.94;;;15.92;67.81
6532;BME280;3299;42.004;24.868;2022-11-24T12:12:21;97373.84;;;15.56;68.92
6532;BME280;3299;42.004;24.868;2022-11-24T12:23:56;97365.31;;;15.38;72.68
6532;BME280;3299;42.004;24.868;2022-11-24T12:26:52;97369.88;;;15.36;75.22
6532;BME280;3299;42.004;24.868;2022-11-24T12:35:48;97379.31;;;15.37;76.77
6532;BME280;3299;42.004;24.868;2022-11-24T12:43:44;97383.50;;;15.30;77.23
6532;BME280;3299;42.004;24.868;2022-11-24T12:46:33;97388.38;;;15.25;77.11
6532;BME280;3299;42.004;24.868;2022-11-24T12:49:20;97382.47;;;15.15;77.49
6532;BME280;3299;42.004;24.868;2022-11-24T12:51:58;97381.81;;;15.05;78.40
6532;BME280;3299;42.004;24.868;2022-11-24T12:54:31;97388.94;;;14.95;79.41
6532;BME280;3299;42.004;24.868;2022-11-24T12:57:16;97399.28;;;14.79;79.93
6532;BME280;3299;42.004;24.868;2022-11-24T12:59:59;97393.38;;;14.69;79.83
6532;BME280;3299;42.004;24.868;2022-11-24T13:05:20;97398.69;;;14.59;79.60
6532;BME280;3299;42.004;24.868;2022-11-24T13:07:56;97399.28;;;14.53;80.56
6532;BME280;3299;42.004;24.868;2022-11-24T13:15:27;97393.69;;;14.66;78.78
6532;BME280;3299;42.004;24.868;2022-11-24T13:17:54;97386.19;;;14.63;78.50
6532;BME280;3299;42.004;24.868;2022-11-24T13:20:29;97389.09;;;14.60;77.48
6532;BME280;3299;42.004;24.868;2022-11-24T13:23:05;97379.59;;;14.51;78.13
6532;BME280;3299;42.004;24.868;2022-11-24T13:25:34;97391.44;;;14.45;76.90
6532;BME280;3299;42.004;24.868;2022-11-24T13:28:04;97380.53;;;14.42;77.08
6532;BME280;3299;42.004;24.868;2022-11-24T13:35:38;97381.66;;;14.39;75.36
6532;BME280;3299;42.004;24.868;2022-11-24T13:41:09;97389.00;;;14.44;74.38
6532;BME280;3299;42.004;24.868;2022-11-24T13:43:34;97397.78;;;14.43;74.02
6532;BME280;3299;42.004;24.868;2022-11-24T13:46:02;97394.38;;;14.42;73.47
6532;BME280;3299;42.004;24.868;2022-11-24T14:04:18;97410.41;;;13.95;81.98
6532;BME280;3299;42.004;24.868;2022-11-24T14:06:48;97420.56;;;13.88;83.08
6532;BME280;3299;42.004;24.868;2022-11-24T14:14:40;97429.72;;;13.57;83.49
6532;BME280;3299;42.004;24.868;2022-11-24T14:17:15;97453.44;;;13.45;83.66
6532;BME280;3299;42.004;24.868;2022-11-24T14:19:43;97451.44;;;13.39;82.94
6532;BME280;3299;42.004;24.868;2022-11-24T14:22:18;97462.69;;;13.30;82.07
6532;BME280;3299;42.004;24.868;2022-11-24T14:24:50;97467.25;;;13.18;81.45
6532;BME280;3299;42.004;24.868;2022-11-24T14:27:16;97470.56;;;13.11;80.46
6532;BME280;3299;42.004;24.868;2022-11-24T14:30:36;97487.28;;;12.99;79.32
6532;BME280;3299;42.004;24.868;2022-11-24T14:32:38;97487.72;;;12.85;78.84
6532;BME280;3299;42.004;24.868;2022-11-24T14:37:49;97491.44;;;12.73;77.25
6532;BME280;3299;42.004;24.868;2022-11-24T14:43:03;97505.66;;;12.69;78.31
6532;BME280;3299;42.004;24.868;2022-11-24T14:45:28;97509.22;;;12.68;78.25
6532;BME280;3299;42.004;24.868;2022-11-24T14:47:54;97514.16;;;12.71;77.40
6532;BME280;3299;42.004;24.868;2022-11-24T14:50:21;97510.84;;;12.69;77.51
6532;BME280;3299;42.004;24.868;2022-11-24T14:52:55;97515.22;;;12.59;76.44
6532;BME280;3299;42.004;24.868;2022-11-24T14:55:25;97522.50;;;12.65;76.08
6532;BME280;3299;42.004;24.868;2022-11-24T14:57:51;97505.97;;;12.66;75.41
6532;BME280;3299;42.004;24.868;2022-11-24T15:02:54;97527.94;;;12.62;76.78
6532;BME280;3299;42.004;24.868;2022-11-24T15:05:24;97527.94;;;12.62;76.73
6532;BME280;3299;42.004;24.868;2022-11-24T15:08:01;97527.38;;;12.68;75.73
6532;BME280;3299;42.004;24.868;2022-11-24T15:10:36;97538.72;;;12.76;75.95
6532;BME280;3299;42.004;24.868;2022-11-24T15:13:16;97536.53;;;12.81;76.15
6532;BME280;3299;42.004;24.868;2022-11-24T15:15:53;97548.81;;;12.79;76.90
6532;BME280;3299;42.004;24.868;2022-11-24T15:20:49;97554.81;;;12.80;77.62
6532;BME280;3299;42.004;24.868;2022-11-24T15:23:25;97553.75;;;12.73;78.83
6532;BME280;3299;42.004;24.868;2022-11-24T15:25:54;97547.03;;;12.80;78.11
6532;BME280;3299;42.004;24.868;2022-11-24T15:28:23;97553.19;;;12.79;78.61